Terminal Aerodrome Forecast
Issued by NWS

Home | Current Version | Previous Version | Text Only | Print | Product List | Glossary Off
Versions: 1 2 3 4 5 6 7 8 9 10 11 12 13 14 15 16 17

000
FTUS43 KBIS 160500
TAFDIK
TAF
KDIK 160530Z 1606/1706 33006KT P6SM OVC013
     FM161200 VRB04KT P6SM OVC015
     FM161800 15005KT P6SM OVC018
     FM162100 13007KT P6SM SCT025=

USA.gov is the U.S. government's official web portal to all federal, state and local government web resources and services.